createdAt,value
2017-05-28T00:00:22.418Z,4.90
2017-05-28T00:02:51.223Z,5.56
2017-05-28T00:05:20.083Z,5.26
2017-05-28T00:07:48.893Z,4.90
2017-05-28T00:10:17.696Z,5.06
2017-05-28T00:12:46.527Z,5.00
2017-05-28T00:15:15.339Z,5.10
2017-05-28T00:17:44.149Z,5.66
2017-05-28T00:20:12.983Z,5.92
2017-05-28T00:22:41.813Z,5.08
2017-05-28T00:25:10.603Z,5.10
2017-05-28T00:27:39.436Z,5.38
2017-05-28T00:30:08.239Z,5.42
2017-05-28T00:32:37.056Z,5.56
2017-05-28T00:35:05.887Z,6.08
2017-05-28T00:37:34.692Z,7.40
2017-05-28T00:40:03.496Z,5.60
2017-05-28T00:42:32.320Z,5.50
2017-05-28T00:45:01.160Z,5.12
2017-05-28T00:47:29.984Z,4.36
2017-05-28T00:49:58.808Z,5.26
2017-05-28T00:52:27.623Z,5.02
2017-05-28T00:54:56.455Z,5.58
2017-05-28T00:57:25.284Z,5.64
2017-05-28T00:59:54.099Z,5.66
2017-05-28T01:02:22.916Z,6.04
2017-05-28T01:04:51.763Z,7.04
2017-05-28T01:07:20.596Z,6.28
2017-05-28T01:09:49.414Z,5.42
2017-05-28T01:12:18.218Z,5.52
2017-05-28T01:14:47.069Z,5.56
2017-05-28T01:17:15.881Z,6.22
2017-05-28T01:19:44.688Z,5.80
2017-05-28T01:22:13.519Z,5.82
2017-05-28T01:24:42.332Z,5.18
2017-05-28T01:27:11.175Z,6.20
2017-05-28T01:29:39.984Z,5.40
2017-05-28T01:32:08.817Z,6.04
2017-05-28T01:34:37.640Z,6.44
2017-05-28T01:37:06.448Z,5.28
2017-05-28T01:39:35.279Z,5.86
2017-05-28T01:42:04.100Z,5.68
2017-05-28T01:44:32.912Z,6.16
2017-05-28T01:47:01.755Z,6.28
2017-05-28T01:49:30.545Z,7.44
2017-05-28T01:51:59.361Z,6.58
2017-05-28T01:54:28.294Z,6.00
2017-05-28T01:56:57.106Z,5.30
2017-05-28T01:59:25.943Z,5.98
2017-05-28T02:01:54.748Z,7.18
2017-05-28T02:04:23.579Z,6.26
2017-05-28T02:06:52.415Z,5.80
2017-05-28T02:09:21.215Z,6.52
2017-05-28T02:11:50.033Z,6.60
2017-05-28T02:14:18.859Z,6.84
2017-05-28T02:16:47.665Z,7.96
2017-05-28T02:19:16.494Z,5.84
2017-05-28T02:21:45.301Z,6.34
2017-05-28T02:24:14.111Z,6.12
2017-05-28T02:26:42.949Z,6.16
2017-05-28T02:29:11.763Z,11.16
2017-05-28T02:31:40.575Z,7.04
2017-05-28T02:34:09.400Z,7.16
2017-05-28T02:36:38.218Z,7.30
2017-05-28T02:39:07.031Z,6.60
2017-05-28T02:41:35.906Z,6.50
2017-05-28T02:44:04.720Z,6.76
2017-05-28T02:46:33.533Z,6.62
2017-05-28T02:49:02.379Z,6.72
2017-05-28T02:51:31.194Z,6.74
2017-05-28T02:53:59.996Z,6.94
2017-05-28T02:56:28.805Z,6.72
2017-05-28T02:58:57.617Z,6.84
2017-05-28T03:01:26.435Z,6.36
2017-05-28T03:03:55.258Z,7.08
2017-05-28T03:06:24.087Z,5.96
2017-05-28T03:08:52.884Z,7.06
2017-05-28T03:11:21.701Z,7.00
2017-05-28T03:13:50.543Z,6.40
2017-05-28T03:16:19.359Z,7.34
2017-05-28T03:18:48.167Z,6.94
2017-05-28T03:21:16.979Z,7.14
2017-05-28T03:23:45.803Z,6.72
2017-05-28T03:26:14.635Z,7.10
2017-05-28T03:28:43.455Z,7.54
2017-05-28T03:31:12.262Z,7.12
2017-05-28T03:33:41.112Z,6.56
2017-05-28T03:36:09.928Z,7.80
2017-05-28T03:38:38.715Z,7.48
2017-05-28T03:41:07.532Z,7.42
2017-05-28T03:43:36.345Z,6.80
2017-05-28T03:46:05.170Z,7.38
2017-05-28T03:48:33.975Z,7.56
2017-05-28T03:51:02.802Z,10.08
2017-05-28T03:53:31.619Z,8.10
2017-05-28T03:56:00.438Z,7.24
2017-05-28T03:58:29.239Z,7.74
2017-05-28T04:00:58.191Z,7.48
2017-05-28T04:03:27.007Z,8.58
2017-05-28T04:05:55.806Z,8.68
2017-05-28T04:08:24.634Z,8.84
2017-05-28T04:10:53.439Z,8.46
2017-05-28T04:13:22.282Z,8.22
2017-05-28T04:15:51.123Z,11.18
2017-05-28T04:18:19.938Z,10.84
2017-05-28T04:20:48.752Z,11.12
2017-05-28T04:23:17.588Z,12.20
2017-05-28T04:25:46.443Z,12.66
2017-05-28T04:28:15.247Z,12.82
2017-05-28T04:30:44.733Z,14.14
2017-05-28T04:33:13.540Z,11.78
2017-05-28T04:35:42.352Z,11.22
2017-05-28T04:38:11.188Z,12.12
2017-05-28T04:40:40.004Z,12.28
2017-05-28T04:43:08.858Z,13.98
2017-05-28T04:45:37.668Z,15.84
2017-05-28T04:48:06.487Z,15.60
2017-05-28T04:50:35.332Z,15.68
2017-05-28T04:53:04.214Z,15.26
2017-05-28T04:55:33.018Z,14.76
2017-05-28T04:58:01.851Z,14.48
2017-05-28T05:00:30.656Z,15.86
2017-05-28T05:02:59.493Z,16.44
2017-05-28T05:05:28.338Z,15.00
2017-05-28T05:07:57.167Z,15.50
2017-05-28T05:10:25.987Z,15.66
2017-05-28T05:12:54.805Z,14.88
2017-05-28T05:15:24.499Z,15.60
2017-05-28T05:17:53.321Z,15.14
2017-05-28T05:20:22.139Z,13.76
2017-05-28T05:22:50.978Z,13.94
2017-05-28T05:25:19.795Z,15.86
2017-05-28T05:27:48.629Z,15.98
2017-05-28T05:30:17.448Z,18.34
2017-05-28T05:32:47.459Z,17.18
2017-05-28T05:35:16.303Z,16.50
2017-05-28T05:37:45.126Z,23.58
2017-05-28T05:40:13.944Z,18.66
2017-05-28T05:42:42.771Z,19.14
2017-05-28T05:45:11.607Z,15.56
2017-05-28T05:47:40.447Z,14.48
2017-05-28T05:50:09.273Z,16.76
2017-05-28T05:52:38.136Z,20.46
2017-05-28T05:55:06.996Z,19.52
2017-05-28T05:57:35.807Z,21.44
2017-05-28T06:00:04.651Z,18.68
2017-05-28T06:02:33.477Z,20.76
2017-05-28T06:05:02.341Z,19.40
2017-05-28T06:07:31.194Z,17.54
2017-05-28T06:10:00.051Z,18.40
2017-05-28T06:12:28.895Z,19.46
2017-05-28T06:14:58.345Z,20.68
2017-05-28T06:17:27.139Z,20.74
2017-05-28T06:19:55.980Z,19.12
2017-05-28T06:22:24.848Z,20.82
2017-05-28T06:24:53.699Z,20.84
2017-05-28T06:27:22.523Z,20.92
2017-05-28T06:29:51.364Z,20.72
2017-05-28T06:32:20.651Z,18.86
2017-05-28T06:34:49.464Z,20.18
2017-05-28T06:37:18.311Z,20.32
2017-05-28T06:39:47.126Z,22.06
2017-05-28T06:42:15.953Z,18.62
2017-05-28T06:44:44.803Z,20.02
2017-05-28T06:47:13.627Z,20.74
2017-05-28T06:49:42.443Z,19.64
2017-05-28T06:52:11.280Z,20.30
2017-05-28T06:54:40.103Z,19.90
2017-05-28T06:57:08.917Z,20.98
2017-05-28T06:59:37.752Z,20.40
2017-05-28T07:02:06.736Z,20.68
2017-05-28T07:04:35.547Z,22.26
2017-05-28T07:07:04.393Z,21.92
2017-05-28T07:09:33.211Z,24.82
2017-05-28T07:12:02.039Z,25.88
2017-05-28T07:14:30.927Z,26.60
2017-05-28T07:16:59.744Z,28.46
2017-05-28T07:19:28.572Z,39.72
2017-05-28T07:21:57.479Z,38.68
2017-05-28T07:24:26.291Z,33.58
2017-05-28T07:26:55.208Z,34.10
2017-05-28T07:29:24.068Z,38.28
2017-05-28T07:31:52.889Z,33.88
2017-05-28T07:34:21.703Z,35.38
2017-05-28T07:36:50.531Z,37.00
2017-05-28T07:39:19.448Z,39.18
2017-05-28T07:41:48.273Z,33.32
2017-05-28T07:44:17.099Z,36.82
2017-05-28T07:46:45.965Z,35.64
2017-05-28T07:49:14.799Z,34.54
2017-05-28T07:51:43.638Z,36.58
2017-05-28T07:54:12.454Z,31.32
2017-05-28T07:56:41.306Z,32.74
2017-05-28T07:59:10.128Z,30.12
2017-05-28T08:01:38.943Z,34.08
2017-05-28T08:04:07.771Z,31.20
2017-05-28T08:06:36.603Z,30.12
2017-05-28T08:09:05.541Z,34.40
2017-05-28T08:11:34.350Z,31.80
2017-05-28T08:14:03.183Z,31.40
2017-05-28T08:16:32.031Z,32.24
2017-05-28T08:19:00.860Z,27.34
2017-05-28T08:21:29.698Z,26.52
2017-05-28T08:23:58.524Z,23.26
2017-05-28T08:26:27.359Z,22.84
2017-05-28T08:28:56.177Z,25.54
2017-05-28T08:31:25.021Z,24.78
2017-05-28T08:33:53.861Z,26.44
2017-05-28T08:36:22.673Z,26.88
2017-05-28T08:38:51.528Z,33.24
2017-05-28T08:41:20.361Z,29.14
2017-05-28T08:43:49.239Z,26.92
2017-05-28T08:46:18.040Z,25.32
2017-05-28T08:48:46.905Z,30.08
2017-05-28T08:51:16.504Z,28.20
2017-05-28T08:53:45.309Z,31.48
2017-05-28T08:56:14.127Z,30.38
2017-05-28T08:58:42.954Z,31.16
2017-05-28T09:01:11.781Z,30.96
2017-05-28T09:03:40.639Z,27.46
2017-05-28T09:06:09.454Z,27.36
2017-05-28T09:08:38.276Z,25.16
2017-05-28T09:11:07.120Z,22.62
2017-05-28T09:13:35.952Z,23.18
2017-05-28T09:16:04.794Z,21.26
2017-05-28T09:18:33.628Z,16.22
2017-05-28T09:21:02.456Z,22.28
2017-05-28T09:23:31.318Z,19.84
2017-05-28T09:26:00.143Z,19.88
2017-05-28T09:28:28.965Z,19.02
2017-05-28T09:30:57.819Z,20.04
2017-05-28T09:33:26.643Z,18.50
2017-05-28T09:35:55.451Z,19.18
2017-05-28T09:38:25.030Z,18.76
2017-05-28T09:40:53.851Z,22.10
2017-05-28T09:43:22.683Z,22.74
2017-05-28T09:45:51.511Z,24.90
2017-05-28T09:48:20.337Z,24.56
2017-05-28T09:50:49.168Z,26.40
2017-05-28T09:53:17.975Z,22.44
2017-05-28T09:55:46.911Z,24.44
2017-05-28T09:58:15.728Z,23.60
2017-05-28T10:00:44.546Z,21.80
2017-05-28T10:03:13.409Z,23.68
2017-05-28T10:05:42.254Z,21.88
2017-05-28T10:08:11.079Z,23.60
2017-05-28T10:10:39.912Z,22.54
2017-05-28T10:13:08.754Z,23.94
2017-05-28T10:15:37.560Z,26.96
2017-05-28T10:18:06.396Z,28.88
2017-05-28T10:20:35.268Z,26.58
2017-05-28T10:23:04.089Z,26.56
2017-05-28T10:25:32.928Z,25.78
2017-05-28T10:28:01.745Z,27.48
2017-05-28T10:30:31.359Z,28.44
2017-05-28T10:33:00.191Z,25.10
2017-05-28T10:35:29.024Z,25.60
2017-05-28T10:37:57.855Z,22.66
2017-05-28T10:40:26.700Z,27.44
2017-05-28T10:42:55.511Z,28.82
2017-05-28T10:45:24.339Z,24.70
2017-05-28T10:47:53.172Z,29.06
2017-05-28T10:50:22.000Z,27.88
2017-05-28T10:52:50.820Z,24.60
2017-05-28T10:55:19.646Z,26.96
2017-05-28T10:57:48.528Z,27.14
2017-05-28T11:00:17.360Z,28.20
2017-05-28T11:02:46.164Z,27.00
2017-05-28T11:05:15.010Z,30.32
2017-05-28T11:07:43.822Z,25.42
2017-05-28T11:10:12.651Z,23.20
2017-05-28T11:12:41.495Z,26.16
2017-05-28T11:15:10.315Z,23.94
2017-05-28T11:17:39.160Z,21.50
2017-05-28T11:20:08.019Z,21.86
2017-05-28T11:22:40.781Z,22.08
2017-05-28T11:25:09.635Z,23.04
2017-05-28T11:27:38.458Z,22.84
2017-05-28T11:30:07.345Z,22.98
2017-05-28T11:32:36.191Z,23.20
2017-05-28T11:35:05.012Z,22.84
2017-05-28T11:37:33.869Z,24.04
2017-05-28T11:40:02.704Z,24.58
2017-05-28T11:42:31.521Z,22.80
2017-05-28T11:45:00.342Z,20.84
2017-05-28T11:47:29.160Z,20.26
2017-05-28T11:49:57.992Z,21.02
2017-05-28T11:52:26.832Z,21.26
2017-05-28T11:54:55.644Z,18.76
2017-05-28T11:57:24.501Z,19.34
2017-05-28T11:59:53.315Z,20.68
2017-05-28T12:02:22.132Z,22.04
2017-05-28T12:04:50.975Z,20.44
2017-05-28T12:07:19.807Z,20.88
2017-05-28T12:09:48.644Z,19.40
2017-05-28T12:12:17.455Z,21.82
2017-05-28T12:14:46.322Z,20.66
2017-05-28T12:17:15.140Z,24.46
2017-05-28T12:19:43.989Z,19.38
2017-05-28T12:22:12.803Z,20.18
2017-05-28T12:24:41.666Z,19.36
2017-05-28T12:27:10.495Z,21.94
2017-05-28T12:29:39.322Z,18.22
2017-05-28T12:32:08.282Z,20.04
2017-05-28T12:34:37.083Z,16.78
2017-05-28T12:37:05.938Z,19.18
2017-05-28T12:39:34.783Z,16.82
2017-05-28T12:42:04.464Z,19.10
2017-05-28T12:44:33.463Z,19.82
2017-05-28T12:47:02.251Z,18.02
2017-05-28T12:49:31.096Z,18.10
2017-05-28T12:51:59.932Z,16.12
2017-05-28T12:54:28.843Z,17.72
2017-05-28T12:56:57.684Z,17.64
2017-05-28T12:59:27.085Z,16.38
2017-05-28T13:01:55.922Z,17.88
2017-05-28T13:04:24.763Z,18.24
2017-05-28T13:06:53.584Z,19.66
2017-05-28T13:09:22.459Z,18.18
2017-05-28T13:11:51.308Z,19.14
2017-05-28T13:14:20.122Z,19.28
2017-05-28T13:16:48.953Z,17.92
2017-05-28T13:19:17.781Z,19.68
2017-05-28T13:21:46.623Z,17.32
2017-05-28T13:24:15.441Z,15.90
2017-05-28T13:26:44.268Z,15.46
2017-05-28T13:29:13.116Z,16.58
2017-05-28T13:31:42.011Z,17.14
2017-05-28T13:34:10.823Z,17.96
2017-05-28T13:36:39.664Z,15.08
2017-05-28T13:39:08.503Z,17.10
2017-05-28T13:41:37.332Z,18.02
2017-05-28T13:44:06.196Z,17.32
2017-05-28T13:46:35.024Z,16.64
2017-05-28T13:49:03.852Z,15.04
2017-05-28T13:51:32.719Z,15.94
2017-05-28T13:54:01.575Z,16.68
2017-05-28T13:56:30.428Z,15.32
2017-05-28T13:58:59.261Z,14.96
2017-05-28T14:01:28.083Z,15.00
2017-05-28T14:03:56.895Z,13.60
2017-05-28T14:06:25.735Z,12.76
2017-05-28T14:08:54.552Z,12.24
2017-05-28T14:11:24.143Z,11.54
2017-05-28T14:13:52.988Z,13.98
2017-05-28T14:16:21.832Z,13.98
2017-05-28T14:18:51.621Z,14.88
2017-05-28T14:21:20.433Z,15.16
2017-05-28T14:23:49.258Z,12.96
2017-05-28T14:26:18.199Z,14.64
2017-05-28T14:28:47.051Z,11.24
2017-05-28T14:31:15.873Z,11.68
2017-05-28T14:33:44.792Z,11.36
2017-05-28T14:36:13.636Z,11.06
2017-05-28T14:38:42.472Z,11.58
2017-05-28T14:41:11.303Z,11.00
2017-05-28T14:43:40.163Z,13.70
2017-05-28T14:46:08.995Z,11.88
2017-05-28T14:48:37.836Z,14.14
2017-05-28T14:51:06.690Z,12.42
2017-05-28T14:53:35.519Z,11.66
2017-05-28T14:56:04.335Z,11.56
2017-05-28T14:58:33.183Z,11.92
2017-05-28T15:01:02.023Z,13.16
2017-05-28T15:03:30.866Z,12.40
2017-05-28T15:05:59.710Z,10.48
2017-05-28T15:08:28.886Z,7.92
2017-05-28T15:10:57.687Z,7.86
2017-05-28T15:13:26.527Z,7.52
2017-05-28T15:15:55.366Z,9.74
2017-05-28T15:18:24.172Z,9.00
2017-05-28T15:20:53.000Z,8.94
2017-05-28T15:23:21.840Z,7.96
2017-05-28T15:25:50.645Z,8.68
2017-05-28T15:28:19.464Z,7.70
2017-05-28T15:30:48.295Z,7.00
2017-05-28T15:33:18.232Z,6.36
2017-05-28T15:35:47.076Z,6.00
2017-05-28T15:38:15.929Z,6.74
2017-05-28T15:40:44.736Z,4.98
2017-05-28T15:43:13.568Z,6.40
2017-05-28T15:45:42.432Z,6.40
2017-05-28T15:48:11.255Z,7.02
2017-05-28T15:50:40.055Z,5.88
2017-05-28T15:53:08.887Z,5.96
2017-05-28T15:55:37.744Z,7.14
2017-05-28T15:58:06.535Z,6.46
2017-05-28T16:00:35.363Z,7.52
2017-05-28T16:03:04.192Z,6.36
2017-05-28T16:05:33.020Z,5.40
2017-05-28T16:08:01.820Z,5.40
2017-05-28T16:10:30.679Z,5.66
2017-05-28T16:13:00.266Z,5.60
2017-05-28T16:15:30.019Z,6.14
2017-05-28T16:17:58.857Z,5.68
2017-05-28T16:20:27.711Z,5.32
2017-05-28T16:22:56.527Z,4.86
2017-05-28T16:25:25.360Z,5.30
2017-05-28T16:27:54.165Z,6.36
2017-05-28T16:43:23.211Z,11.74
2017-05-28T16:45:52.017Z,8.22
2017-05-28T16:48:20.826Z,7.78
2017-05-28T16:50:49.661Z,9.08
2017-05-28T16:53:18.487Z,8.32
2017-05-28T16:55:47.715Z,8.38
2017-05-28T16:58:16.711Z,8.66
2017-05-28T17:00:45.536Z,8.68
2017-05-28T17:03:14.343Z,8.56
2017-05-28T17:05:43.178Z,9.28
2017-05-28T17:08:12.018Z,9.80
2017-05-28T17:10:40.848Z,9.70
2017-05-28T17:13:09.680Z,9.62
2017-05-28T17:15:38.542Z,9.00
2017-05-28T17:18:07.356Z,11.10
2017-05-28T17:20:36.178Z,9.34
2017-05-28T17:23:05.045Z,11.02
2017-05-28T17:25:33.860Z,10.52
2017-05-28T17:28:02.678Z,9.64
2017-05-28T17:30:31.515Z,10.40
2017-05-28T17:33:00.395Z,11.40
2017-05-28T17:35:29.254Z,12.26
2017-05-28T17:37:58.176Z,12.46
2017-05-28T17:40:27.002Z,10.86
2017-05-28T17:42:55.831Z,12.18
2017-05-28T17:45:24.692Z,9.12
2017-05-28T17:47:53.559Z,10.62
2017-05-28T17:50:22.375Z,11.82
2017-05-28T17:52:51.225Z,12.58
2017-05-28T17:55:20.071Z,10.98
2017-05-28T17:57:48.916Z,12.48
2017-05-28T18:00:17.748Z,11.48
2017-05-28T18:02:46.907Z,11.68
2017-05-28T18:05:15.700Z,12.40
2017-05-28T18:07:44.527Z,13.80
2017-05-28T18:10:13.372Z,10.76
2017-05-28T18:12:42.195Z,10.34
2017-05-28T18:15:11.019Z,10.26
2017-05-28T18:17:39.858Z,10.30
2017-05-28T18:20:08.731Z,10.60
2017-05-28T18:22:37.571Z,10.26
2017-05-28T18:25:06.410Z,10.00
2017-05-28T18:27:35.215Z,9.02
2017-05-28T18:30:04.074Z,9.70
2017-05-28T18:32:32.873Z,8.78
2017-05-28T18:35:01.700Z,8.46
2017-05-28T18:37:30.576Z,10.34
2017-05-28T18:39:59.424Z,8.64
2017-05-28T18:42:29.245Z,9.24
2017-05-28T18:44:58.083Z,9.06
2017-05-28T18:47:26.904Z,8.68
2017-05-28T18:49:55.763Z,8.78
2017-05-28T18:52:24.592Z,8.92
2017-05-28T18:54:53.444Z,10.18
2017-05-28T18:57:22.270Z,8.94
2017-05-28T18:59:51.944Z,10.24
2017-05-28T19:02:20.785Z,9.92
2017-05-28T19:04:49.612Z,10.78
2017-05-28T19:07:18.443Z,10.14
2017-05-28T19:09:47.301Z,10.98
2017-05-28T19:12:16.127Z,10.28
2017-05-28T19:14:44.994Z,10.42
2017-05-28T19:17:13.840Z,10.00
2017-05-28T19:19:42.719Z,10.98
2017-05-28T19:22:11.473Z,10.08
2017-05-28T19:24:40.308Z,10.30
2017-05-28T19:27:09.149Z,11.04
2017-05-28T19:29:38.012Z,11.74
2017-05-28T19:32:06.813Z,10.74
2017-05-28T19:34:35.637Z,12.68
2017-05-28T19:37:04.481Z,10.34
2017-05-28T19:39:33.306Z,11.68
2017-05-28T19:42:02.133Z,10.38
2017-05-28T19:44:31.030Z,11.04
2017-05-28T19:46:59.888Z,11.52
2017-05-28T19:49:28.739Z,29.40
2017-05-28T19:51:57.597Z,14.50
2017-05-28T19:54:26.567Z,13.18
2017-05-28T19:56:55.398Z,11.04
2017-05-28T19:59:24.225Z,13.06
2017-05-28T20:01:53.043Z,10.98
2017-05-28T20:04:21.887Z,12.18
2017-05-28T20:06:50.701Z,11.68
2017-05-28T20:09:20.251Z,12.50
2017-05-28T20:11:49.078Z,12.54
2017-05-28T20:14:17.893Z,12.80
2017-05-28T20:16:47.018Z,13.48
2017-05-28T20:19:16.333Z,11.24
2017-05-28T20:21:45.160Z,12.46
2017-05-28T20:24:13.981Z,13.42
2017-05-28T20:26:42.826Z,16.70
2017-05-28T20:29:11.737Z,18.30
2017-05-28T20:31:40.560Z,17.32
2017-05-28T20:34:09.391Z,21.98
2017-05-28T20:36:38.251Z,20.70
2017-05-28T20:39:07.692Z,21.06
2017-05-28T20:41:36.584Z,18.44
2017-05-28T20:44:06.879Z,16.80
2017-05-28T20:46:35.686Z,17.54
2017-05-28T20:49:04.505Z,16.50
2017-05-28T20:51:33.350Z,18.12
2017-05-28T20:54:02.186Z,17.94
2017-05-28T20:56:31.013Z,17.82
2017-05-28T20:58:59.861Z,16.50
2017-05-28T21:01:28.683Z,15.50
2017-05-28T21:03:57.760Z,16.48
2017-05-28T21:06:26.591Z,16.08
2017-05-28T21:08:55.407Z,18.52
2017-05-28T21:11:24.243Z,15.32
2017-05-28T21:13:53.680Z,15.44
2017-05-28T21:16:22.529Z,16.72
2017-05-28T21:18:51.375Z,16.74
2017-05-28T21:21:20.197Z,15.46
2017-05-28T21:23:49.033Z,17.82
2017-05-28T21:26:17.884Z,18.24
2017-05-28T21:28:46.704Z,19.50
2017-05-28T21:31:15.552Z,20.48
2017-05-28T21:33:44.391Z,19.02
2017-05-28T21:36:13.215Z,19.26
2017-05-28T21:38:42.061Z,20.10
2017-05-28T21:41:10.888Z,19.18
2017-05-28T21:43:39.708Z,19.80
2017-05-28T21:46:08.646Z,23.44
2017-05-28T21:48:37.443Z,20.92
2017-05-28T21:51:06.294Z,20.68
2017-05-28T21:53:35.161Z,22.58
2017-05-28T21:56:04.005Z,21.26
2017-05-28T21:58:32.810Z,24.52
2017-05-28T22:01:01.629Z,21.38
2017-05-28T22:03:30.496Z,20.58
2017-05-28T22:05:59.311Z,21.58
2017-05-28T22:08:28.123Z,19.72
2017-05-28T22:10:56.946Z,22.90
2017-05-28T22:13:25.780Z,24.22
2017-05-28T22:15:54.637Z,19.42
2017-05-28T22:18:23.459Z,21.40
2017-05-28T22:20:52.288Z,20.94
2017-05-28T22:23:21.613Z,20.00
2017-05-28T22:25:50.431Z,20.60
2017-05-28T22:28:19.248Z,21.46
2017-05-28T22:30:48.095Z,19.66
2017-05-28T22:33:16.914Z,19.90
2017-05-28T22:35:45.841Z,19.28
2017-05-28T22:38:14.636Z,18.82
2017-05-28T22:40:43.453Z,19.68
2017-05-28T22:43:12.292Z,21.12
2017-05-28T22:45:41.115Z,23.40
2017-05-28T22:48:09.955Z,23.04
2017-05-28T22:50:38.791Z,21.38
2017-05-28T22:53:07.618Z,20.68
2017-05-28T22:55:36.459Z,21.48
2017-05-28T22:58:05.291Z,23.70
2017-05-28T23:00:34.100Z,19.88
2017-05-28T23:03:03.656Z,22.18
2017-05-28T23:05:32.523Z,22.18
2017-05-28T23:08:01.362Z,23.74
2017-05-28T23:10:30.219Z,21.84
2017-05-28T23:12:59.023Z,22.76
2017-05-28T23:15:27.846Z,23.14
2017-05-28T23:17:56.684Z,23.20
2017-05-28T23:20:25.510Z,20.92
2017-05-28T23:22:54.355Z,22.46
2017-05-28T23:25:23.173Z,23.92
2017-05-28T23:27:51.999Z,23.40
2017-05-28T23:30:20.835Z,22.30
2017-05-28T23:32:49.663Z,24.04
2017-05-28T23:35:18.489Z,23.68
2017-05-28T23:37:47.334Z,22.08
2017-05-28T23:40:16.154Z,23.02
2017-05-28T23:42:44.972Z,21.40
2017-05-28T23:45:14.428Z,24.26
2017-05-28T23:47:43.264Z,21.72
2017-05-28T23:50:12.151Z,23.60
2017-05-28T23:52:40.987Z,22.82
2017-05-28T23:55:09.829Z,22.86
2017-05-28T23:57:38.641Z,22.50
